createdAt,value
2022-10-18T00:00:19.970Z,6.43
2022-10-18T00:02:47.257Z,6.63
2022-10-18T00:05:13.873Z,7.22
2022-10-18T00:07:41.290Z,6.32
2022-10-18T00:10:08.620Z,7.25
2022-10-18T00:12:37.291Z,7.38
2022-10-18T00:15:05.799Z,6.97
2022-10-18T00:17:35.509Z,7.28
2022-10-18T00:20:02.374Z,6.88
2022-10-18T00:22:29.951Z,7.03
2022-10-18T00:24:56.872Z,7.65
2022-10-18T00:27:24.306Z,8.32
2022-10-18T00:29:53.281Z,7.85
2022-10-18T00:32:20.848Z,7.07
2022-10-18T00:34:47.637Z,8.13
2022-10-18T00:37:15.309Z,7.90
2022-10-18T00:39:42.123Z,7.47
2022-10-18T00:42:16.454Z,8.18
2022-10-18T00:44:43.038Z,7.28
2022-10-18T00:47:12.827Z,7.95
2022-10-18T00:49:45.394Z,8.00
2022-10-18T00:52:32.872Z,8.95
2022-10-18T00:55:00.428Z,8.60
2022-10-18T00:57:28.046Z,8.63
2022-10-18T00:59:55.002Z,10.27
2022-10-18T01:02:22.309Z,8.82
2022-10-18T01:04:49.051Z,10.13
2022-10-18T01:07:28.618Z,10.13
2022-10-18T01:10:20.948Z,10.35
2022-10-18T01:13:03.636Z,10.87
2022-10-18T01:15:50.031Z,10.37
2022-10-18T01:18:20.148Z,10.50
2022-10-18T01:21:12.849Z,11.43
2022-10-18T01:24:13.419Z,10.27
2022-10-18T01:27:07.372Z,10.52
2022-10-18T01:30:16.929Z,11.73
2022-10-18T01:32:48.976Z,11.23
2022-10-18T01:35:23.317Z,11.25
2022-10-18T01:37:53.813Z,12.00
2022-10-18T01:40:23.476Z,10.50
2022-10-18T01:42:51.157Z,12.38
2022-10-18T01:45:19.749Z,13.60
2022-10-18T01:47:48.461Z,13.32
2022-10-18T01:50:15.412Z,14.73
2022-10-18T01:52:50.284Z,12.95
2022-10-18T01:55:21.238Z,15.63
2022-10-18T01:58:10.362Z,13.30
2022-10-18T02:00:44.124Z,14.30
2022-10-18T02:03:22.506Z,14.73
2022-10-18T02:05:56.525Z,14.07
2022-10-18T02:08:44.747Z,13.73
2022-10-18T02:11:15.635Z,12.88
2022-10-18T02:13:52.219Z,15.13
2022-10-18T02:16:28.302Z,14.38
2022-10-18T02:19:14.975Z,13.93
2022-10-18T02:21:45.686Z,14.88
2022-10-18T02:24:14.408Z,14.35
2022-10-18T02:26:42.163Z,14.52
2022-10-18T02:29:09.656Z,14.57
2022-10-18T02:31:44.536Z,14.55
2022-10-18T02:34:17.391Z,14.20
2022-10-18T02:36:48.672Z,14.55
2022-10-18T02:39:21.731Z,14.50
2022-10-18T02:41:49.443Z,14.82
2022-10-18T02:44:16.297Z,15.30
2022-10-18T02:46:44.045Z,15.60
2022-10-18T02:49:11.332Z,16.38
2022-10-18T02:51:38.004Z,16.67
2022-10-18T02:54:05.488Z,16.42
2022-10-18T02:56:32.345Z,17.45
2022-10-18T02:58:59.677Z,15.88
2022-10-18T03:01:26.428Z,16.02
2022-10-18T03:03:53.913Z,16.38
2022-10-18T03:06:20.545Z,16.65
2022-10-18T03:08:47.813Z,16.98
2022-10-18T03:11:14.446Z,15.88
2022-10-18T03:13:41.698Z,15.65
2022-10-18T03:16:08.652Z,17.40
2022-10-18T03:18:36.001Z,17.23
2022-10-18T03:21:06.973Z,17.83
2022-10-18T03:23:35.048Z,17.52
2022-10-18T03:26:02.414Z,18.63
2022-10-18T03:28:29.763Z,17.73
2022-10-18T03:31:01.855Z,17.90
2022-10-18T03:33:30.066Z,12.50
2022-10-18T03:35:56.660Z,17.75
2022-10-18T03:38:23.962Z,16.90
2022-10-18T03:40:50.901Z,18.33
2022-10-18T03:43:18.174Z,17.98
2022-10-18T03:45:44.780Z,19.13
2022-10-18T03:48:12.063Z,20.40
2022-10-18T03:50:38.950Z,17.42
2022-10-18T03:53:06.536Z,19.35
2022-10-18T03:55:33.163Z,18.00
2022-10-18T03:58:00.511Z,18.25
2022-10-18T04:00:27.175Z,18.98
2022-10-18T04:02:55.893Z,20.35
2022-10-18T04:05:24.092Z,18.77
2022-10-18T04:07:51.488Z,17.27
2022-10-18T04:10:18.600Z,18.58
2022-10-18T04:12:45.885Z,18.55
2022-10-18T04:15:12.552Z,19.60
2022-10-18T04:17:39.873Z,18.17
2022-10-18T04:20:07.164Z,20.15
2022-10-18T04:22:34.457Z,21.23
2022-10-18T04:25:01.245Z,22.60
2022-10-18T04:27:28.487Z,22.25
2022-10-18T04:29:55.134Z,21.90
2022-10-18T04:32:22.601Z,22.60
2022-10-18T04:34:49.286Z,24.23
2022-10-18T04:37:17.494Z,22.02
2022-10-18T04:39:51.151Z,22.88
2022-10-18T04:42:21.547Z,23.00
2022-10-18T04:44:48.325Z,26.63
2022-10-18T04:47:16.622Z,27.00
2022-10-18T04:49:43.398Z,26.85
2022-10-18T04:52:10.819Z,26.90
2022-10-18T04:54:37.857Z,27.98
2022-10-18T04:57:05.131Z,28.02
2022-10-18T04:59:31.730Z,26.58
2022-10-18T05:01:58.733Z,26.80
2022-10-18T05:04:26.010Z,27.15
2022-10-18T05:06:52.646Z,26.33
2022-10-18T05:09:22.451Z,26.63
2022-10-18T05:11:49.031Z,26.48
2022-10-18T05:14:16.511Z,26.60
2022-10-18T05:16:43.103Z,26.27
2022-10-18T05:19:10.595Z,26.13
2022-10-18T05:21:37.203Z,25.25
2022-10-18T05:24:04.672Z,26.00
2022-10-18T05:26:31.255Z,26.45
2022-10-18T05:28:58.577Z,26.08
2022-10-18T05:31:25.205Z,26.33
2022-10-18T05:33:52.492Z,26.77
2022-10-18T05:36:19.148Z,28.73
2022-10-18T05:38:48.337Z,28.63
2022-10-18T05:41:15.087Z,28.83
2022-10-18T05:43:42.462Z,28.70
2022-10-18T05:46:14.550Z,29.63
2022-10-18T05:48:44.350Z,28.92
2022-10-18T05:51:11.763Z,28.92
2022-10-18T05:53:39.055Z,28.95
2022-10-18T05:56:06.908Z,29.73
2022-10-18T05:58:34.598Z,29.05
2022-10-18T06:01:02.743Z,29.58
2022-10-18T06:03:33.449Z,32.47
2022-10-18T06:06:01.626Z,32.40
2022-10-18T06:08:28.939Z,33.20
2022-10-18T06:10:55.782Z,35.28
2022-10-18T06:13:23.038Z,35.60
2022-10-18T06:15:49.867Z,37.35
2022-10-18T06:18:17.266Z,34.88
2022-10-18T06:20:43.959Z,36.40
2022-10-18T06:23:11.448Z,34.03
2022-10-18T06:25:38.059Z,33.85
2022-10-18T06:28:07.960Z,32.90
2022-10-18T06:30:36.960Z,34.70
2022-10-18T06:33:04.282Z,33.92
2022-10-18T06:35:30.899Z,34.78
2022-10-18T06:37:58.238Z,36.95
2022-10-18T06:40:24.959Z,36.88
2022-10-18T06:43:00.110Z,34.72
2022-10-18T06:45:34.113Z,36.00
2022-10-18T06:48:01.439Z,35.13
2022-10-18T06:50:28.096Z,38.33
2022-10-18T06:52:54.736Z,36.55
2022-10-18T06:55:21.348Z,37.67
2022-10-18T06:57:48.686Z,37.80
2022-10-18T07:00:15.620Z,38.03
2022-10-18T07:02:43.035Z,37.33
2022-10-18T07:05:11.005Z,38.67
2022-10-18T07:07:38.825Z,39.15
2022-10-18T07:10:06.249Z,38.97
2022-10-18T07:12:33.754Z,40.88
2022-10-18T07:15:00.413Z,40.08
2022-10-18T07:17:28.161Z,41.08
2022-10-18T07:19:54.864Z,40.95
2022-10-18T07:22:22.985Z,41.95
2022-10-18T07:24:51.630Z,43.38
2022-10-18T07:27:18.905Z,42.28
2022-10-18T07:29:45.485Z,41.55
2022-10-18T07:32:12.838Z,45.03
2022-10-18T07:34:39.701Z,44.45
2022-10-18T07:37:06.994Z,44.60
2022-10-18T07:39:33.618Z,49.25
2022-10-18T07:42:00.878Z,50.53
2022-10-18T07:44:27.487Z,47.97
2022-10-18T07:46:54.766Z,50.17
2022-10-18T07:49:21.442Z,51.30
2022-10-18T07:51:48.780Z,52.05
2022-10-18T07:54:15.462Z,56.95
2022-10-18T07:56:43.176Z,55.03
2022-10-18T07:59:11.100Z,56.60
2022-10-18T08:01:38.439Z,55.88
2022-10-18T08:04:07.973Z,55.72
2022-10-18T08:06:37.097Z,53.72
2022-10-18T08:09:04.453Z,55.25
2022-10-18T08:11:32.359Z,55.05
2022-10-18T08:13:59.171Z,55.55
2022-10-18T08:16:28.997Z,55.25
2022-10-18T08:18:58.245Z,54.25
2022-10-18T08:21:25.967Z,54.85
2022-10-18T08:23:53.742Z,56.50
2022-10-18T08:26:22.948Z,56.13
2022-10-18T08:28:58.282Z,55.88
2022-10-18T08:31:37.092Z,56.25
2022-10-18T08:34:03.689Z,57.75
2022-10-18T08:36:30.937Z,58.47
2022-10-18T08:38:57.545Z,57.05
2022-10-18T08:41:37.155Z,53.03
2022-10-18T08:44:24.405Z,53.63
2022-10-18T08:46:56.177Z,56.53
2022-10-18T08:49:46.871Z,55.67
2022-10-18T08:55:36.402Z,54.28
2022-10-18T08:58:24.930Z,58.22
2022-10-18T09:00:54.579Z,58.08
2022-10-18T09:03:25.005Z,58.03
2022-10-18T09:06:04.237Z,57.83
2022-10-18T09:08:53.163Z,58.15
2022-10-18T09:11:27.493Z,57.35
2022-10-18T09:14:16.046Z,55.97
2022-10-18T09:17:00.470Z,56.67
2022-10-18T09:20:02.849Z,56.15
2022-10-18T09:22:54.148Z,54.90
2022-10-18T09:25:36.995Z,57.92
2022-10-18T09:30:59.804Z,57.05
2022-10-18T09:33:50.639Z,57.03
2022-10-18T09:36:22.658Z,58.70
2022-10-18T09:39:15.241Z,57.83
2022-10-18T09:41:56.223Z,61.88
2022-10-18T09:44:33.402Z,60.20
2022-10-18T09:47:05.843Z,58.53
2022-10-18T09:49:41.944Z,58.27
2022-10-18T09:52:17.379Z,58.22
2022-10-18T09:54:55.239Z,58.60
2022-10-18T09:57:35.554Z,57.85
2022-10-18T10:00:04.909Z,54.60
2022-10-18T10:02:32.300Z,52.65
2022-10-18T10:04:58.934Z,51.13
2022-10-18T10:07:32.479Z,51.05
2022-10-18T10:10:21.109Z,50.97
2022-10-18T10:12:49.352Z,52.50
2022-10-18T10:15:22.613Z,49.60
2022-10-18T10:18:02.001Z,50.88
2022-10-18T10:20:42.685Z,47.03
2022-10-18T10:23:25.254Z,46.65
2022-10-18T10:26:02.113Z,43.25
2022-10-18T10:28:33.448Z,43.63
2022-10-18T10:31:24.266Z,42.10
2022-10-18T10:34:02.710Z,41.17
2022-10-18T10:36:30.536Z,38.67
2022-10-18T10:39:16.394Z,34.15
2022-10-18T10:41:43.402Z,34.58
2022-10-18T10:44:19.198Z,33.58
2022-10-18T10:46:48.538Z,34.70
2022-10-18T10:49:39.191Z,33.50
2022-10-18T10:52:26.927Z,33.78
2022-10-18T10:55:05.687Z,32.72
2022-10-18T10:57:38.555Z,32.97
2022-10-18T11:00:05.541Z,29.38
2022-10-18T11:02:34.655Z,27.80
2022-10-18T11:05:24.747Z,25.73
2022-10-18T11:07:56.519Z,27.48
2022-10-18T11:10:28.048Z,27.05
2022-10-18T11:13:24.615Z,25.30
2022-10-18T11:16:00.254Z,25.35
2022-10-18T11:18:33.344Z,23.73
2022-10-18T11:21:12.979Z,24.23
2022-10-18T11:23:43.043Z,23.60
2022-10-18T11:26:12.492Z,26.00
2022-10-18T11:29:15.510Z,27.25
2022-10-18T11:31:50.776Z,30.33
2022-10-18T11:34:42.331Z,32.45
2022-10-18T11:37:42.685Z,32.55
2022-10-18T11:40:41.701Z,30.92
2022-10-18T11:43:30.207Z,29.67
2022-10-18T11:46:13.425Z,30.42
2022-10-18T11:48:56.756Z,28.65
2022-10-18T11:51:38.870Z,31.30
2022-10-18T11:54:36.782Z,30.73
2022-10-18T11:57:34.074Z,29.17
2022-10-18T12:00:22.757Z,28.27
2022-10-18T12:03:12.020Z,28.73
2022-10-18T12:05:41.145Z,27.20
2022-10-18T12:08:17.560Z,26.25
2022-10-18T12:11:04.109Z,25.90
2022-10-18T12:14:05.513Z,22.67
2022-10-18T12:16:50.618Z,22.48
2022-10-18T12:19:26.320Z,21.63
2022-10-18T12:21:56.884Z,24.25
2022-10-18T12:24:30.263Z,26.88
2022-10-18T12:27:02.138Z,27.23
2022-10-18T12:29:53.012Z,27.50
2022-10-18T12:32:27.047Z,25.77
2022-10-18T12:35:24.081Z,24.77
2022-10-18T12:38:07.803Z,25.55
2022-10-18T12:40:42.886Z,22.67
2022-10-18T12:43:17.814Z,24.10
2022-10-18T12:45:57.483Z,22.65
2022-10-18T12:48:30.704Z,22.85
2022-10-18T12:51:00.116Z,23.48
2022-10-18T12:53:28.712Z,22.75
2022-10-18T12:55:55.894Z,22.40
2022-10-18T12:58:29.646Z,21.30
2022-10-18T13:01:01.069Z,20.20
2022-10-18T13:03:38.494Z,21.27
2022-10-18T13:06:06.734Z,20.98
2022-10-18T13:08:42.017Z,21.35
2022-10-18T13:11:08.772Z,19.45
2022-10-18T13:13:51.266Z,20.35
2022-10-18T13:16:27.472Z,19.83
2022-10-18T13:19:11.524Z,19.20
2022-10-18T13:21:55.364Z,18.88
2022-10-18T13:24:33.811Z,19.13
2022-10-18T13:27:42.625Z,18.02
2022-10-18T13:30:43.520Z,18.83
2022-10-18T13:33:34.640Z,19.42
2022-10-18T13:36:22.788Z,19.55
2022-10-18T13:38:53.672Z,17.88
2022-10-18T13:44:04.018Z,19.48
2022-10-18T13:46:33.649Z,19.83
2022-10-18T13:49:38.876Z,20.20
2022-10-18T13:52:43.677Z,20.38
2022-10-18T13:55:41.257Z,19.60
2022-10-18T13:58:15.149Z,19.23
2022-10-18T14:01:14.225Z,18.55
2022-10-18T14:04:03.741Z,18.08
2022-10-18T14:06:41.268Z,19.85
2022-10-18T14:09:40.306Z,18.95
2022-10-18T14:12:30.993Z,18.45
2022-10-18T14:15:07.218Z,16.83
2022-10-18T14:17:55.875Z,17.45
2022-10-18T14:20:29.965Z,16.60
2022-10-18T14:23:03.255Z,16.08
2022-10-18T14:25:35.663Z,16.10
2022-10-18T14:28:14.340Z,16.80
2022-10-18T14:31:02.733Z,14.70
2022-10-18T14:33:50.905Z,14.90
2022-10-18T14:36:20.324Z,14.30
2022-10-18T14:38:49.474Z,12.98
2022-10-18T14:41:52.362Z,13.50
2022-10-18T14:44:25.026Z,13.02
2022-10-18T14:47:11.832Z,12.07
2022-10-18T14:49:46.921Z,11.43
2022-10-18T14:52:22.972Z,11.18
2022-10-18T14:54:55.216Z,11.65
2022-10-18T14:57:31.645Z,11.15
2022-10-18T15:00:01.883Z,9.90
2022-10-18T15:02:32.552Z,10.57
2022-10-18T15:05:19.677Z,9.30
2022-10-18T15:07:48.065Z,7.22
2022-10-18T15:10:25.335Z,6.40
2022-10-18T15:13:10.593Z,5.57
2022-10-18T15:15:38.600Z,5.53
2022-10-18T15:18:07.116Z,4.57
2022-10-18T15:20:39.384Z,3.78
2022-10-18T15:23:27.414Z,4.68
2022-10-18T15:26:03.020Z,4.00
2022-10-18T15:28:33.743Z,3.72
2022-10-18T15:31:01.893Z,3.25
2022-10-18T15:33:34.913Z,3.55
2022-10-18T15:36:19.544Z,3.63
2022-10-18T15:38:49.857Z,3.30
2022-10-18T15:41:37.016Z,3.47
2022-10-18T15:44:13.217Z,3.47
2022-10-18T15:46:40.973Z,3.90
2022-10-18T15:49:45.392Z,4.38
2022-10-18T15:52:37.821Z,4.18
2022-10-18T15:55:45.575Z,3.92
2022-10-18T15:58:18.828Z,3.65
2022-10-18T16:03:14.648Z,3.17
2022-10-18T16:05:41.916Z,3.53
2022-10-18T16:08:30.862Z,3.17
2022-10-18T16:10:58.762Z,3.13
2022-10-18T16:13:27.311Z,3.63
2022-10-18T16:15:57.105Z,3.22
2022-10-18T16:18:25.114Z,3.33
2022-10-18T16:20:51.753Z,3.47
2022-10-18T16:23:26.767Z,3.15
2022-10-18T16:25:53.908Z,3.92
2022-10-18T16:28:24.070Z,3.05
2022-10-18T16:30:55.333Z,3.97
2022-10-18T16:33:23.342Z,3.88
2022-10-18T16:35:50.793Z,3.78
2022-10-18T16:38:37.270Z,3.78
2022-10-18T16:41:05.395Z,4.68
2022-10-18T16:43:34.881Z,4.30
2022-10-18T16:46:02.338Z,4.90
2022-10-18T16:48:29.838Z,4.53
2022-10-18T16:50:58.333Z,4.20
2022-10-18T16:53:26.425Z,3.88
2022-10-18T16:55:56.398Z,4.22
2022-10-18T17:00:56.186Z,3.17
2022-10-18T17:03:23.543Z,3.60
2022-10-18T17:05:50.696Z,3.72
2022-10-18T17:08:23.140Z,3.30
2022-10-18T17:10:52.892Z,4.50
2022-10-18T17:13:21.170Z,4.45
2022-10-18T17:15:48.509Z,5.50
2022-10-18T17:18:20.427Z,6.47
2022-10-18T17:20:47.538Z,8.70
2022-10-18T17:23:15.758Z,7.57
2022-10-18T17:25:57.742Z,8.68
2022-10-18T17:28:33.773Z,8.02
2022-10-18T17:31:00.487Z,7.65
2022-10-18T17:33:27.763Z,6.03
2022-10-18T17:35:54.426Z,6.75
2022-10-18T17:38:21.800Z,6.72
2022-10-18T17:40:48.404Z,6.35
2022-10-18T17:43:15.357Z,6.80
2022-10-18T17:45:50.804Z,7.55
2022-10-18T17:48:18.349Z,6.60
2022-10-18T17:50:44.972Z,7.28
2022-10-18T17:53:13.328Z,7.50
2022-10-18T17:55:40.257Z,7.63
2022-10-18T17:58:07.839Z,7.70
2022-10-18T18:00:34.643Z,8.32
2022-10-18T18:03:02.313Z,7.35
2022-10-18T18:05:33.737Z,8.00
2022-10-18T18:08:04.160Z,7.50
2022-10-18T18:10:33.292Z,7.80
2022-10-18T18:13:01.511Z,10.48
2022-10-18T18:15:28.336Z,16.67
2022-10-18T18:17:57.960Z,21.85
2022-10-18T18:20:25.783Z,21.00
2022-10-18T18:22:53.290Z,19.30
2022-10-18T18:25:19.918Z,15.43
2022-10-18T18:27:47.230Z,12.65
2022-10-18T18:30:15.196Z,9.38
2022-10-18T18:32:42.433Z,7.55
2022-10-18T18:35:09.148Z,6.03
2022-10-18T18:37:36.437Z,7.43
2022-10-18T18:40:03.271Z,6.28
2022-10-18T18:42:30.635Z,5.90
2022-10-18T18:44:57.452Z,6.50
2022-10-18T18:47:24.788Z,8.10
2022-10-18T18:49:51.538Z,7.25
2022-10-18T18:52:18.840Z,8.05
2022-10-18T18:54:45.580Z,7.93
2022-10-18T18:57:12.932Z,8.68
2022-10-18T18:59:39.511Z,8.35
2022-10-18T19:02:07.122Z,8.27
2022-10-18T19:04:34.888Z,8.35
2022-10-18T19:07:02.381Z,7.95
2022-10-18T19:09:28.996Z,10.98
2022-10-18T19:11:56.880Z,9.88
2022-10-18T19:14:25.550Z,10.82
2022-10-18T19:16:55.288Z,11.82
2022-10-18T19:19:24.755Z,33.08
2022-10-18T19:21:55.041Z,23.38
2022-10-18T19:24:23.698Z,31.08
2022-10-18T19:26:56.507Z,30.48
2022-10-18T19:29:31.772Z,22.83
2022-10-18T19:32:01.247Z,21.70
2022-10-18T19:34:30.165Z,30.73
2022-10-18T19:36:57.849Z,203.38
2022-10-18T19:39:30.685Z,141.98
2022-10-18T19:42:00.638Z,56.08
2022-10-18T19:44:29.999Z,45.08
2022-10-18T19:46:57.926Z,44.38
2022-10-18T19:49:24.844Z,81.15
2022-10-18T19:51:52.516Z,51.72
2022-10-18T19:54:19.178Z,40.47
2022-10-18T19:56:46.790Z,20.27
2022-10-18T19:59:15.314Z,13.82
2022-10-18T20:01:43.494Z,13.55
2022-10-18T20:04:11.695Z,11.93
2022-10-18T20:06:39.475Z,12.57
2022-10-18T20:09:07.719Z,15.50
2022-10-18T20:11:35.578Z,16.98
2022-10-18T20:14:02.308Z,15.05
2022-10-18T20:16:31.678Z,14.55
2022-10-18T20:19:00.418Z,12.90
2022-10-18T20:21:29.655Z,13.70
2022-10-18T20:23:56.599Z,13.70
2022-10-18T20:26:25.657Z,12.43
2022-10-18T20:28:57.501Z,14.27
2022-10-18T20:31:30.641Z,16.45
2022-10-18T20:33:59.922Z,15.35
2022-10-18T20:36:28.355Z,14.32
2022-10-18T20:38:55.572Z,13.95
2022-10-18T20:41:28.388Z,11.88
2022-10-18T20:43:56.605Z,11.10
2022-10-18T20:46:24.576Z,12.45
2022-10-18T20:48:52.879Z,11.27
2022-10-18T20:51:21.276Z,9.82
2022-10-18T20:53:48.189Z,12.85
2022-10-18T20:56:20.817Z,16.77
2022-10-18T20:58:50.071Z,15.77
2022-10-18T21:01:20.514Z,14.18
2022-10-18T21:03:48.315Z,12.70
2022-10-18T21:06:21.445Z,13.15
2022-10-18T21:08:53.242Z,11.73
2022-10-18T21:11:19.955Z,10.65
2022-10-18T21:13:54.806Z,10.10
2022-10-18T21:16:22.135Z,10.68
2022-10-18T21:18:48.911Z,10.48
2022-10-18T21:21:18.735Z,12.35
2022-10-18T21:23:46.709Z,12.73
2022-10-18T21:26:20.458Z,13.70
2022-10-18T21:28:50.596Z,11.57
2022-10-18T21:31:23.047Z,10.70
2022-10-18T21:33:55.005Z,9.80
2022-10-18T21:36:23.299Z,9.00
2022-10-18T21:38:50.066Z,8.40
2022-10-18T21:41:19.049Z,8.60
2022-10-18T21:43:48.347Z,10.55
2022-10-18T21:46:16.914Z,9.93
2022-10-18T21:48:46.083Z,9.25
2022-10-18T21:51:14.927Z,9.98
2022-10-18T21:53:47.377Z,9.75
2022-10-18T21:56:17.731Z,9.25
2022-10-18T21:58:45.138Z,9.98
2022-10-18T22:01:15.698Z,8.60
2022-10-18T22:03:43.060Z,9.82
2022-10-18T22:06:16.516Z,9.13
2022-10-18T22:08:47.578Z,10.30
2022-10-18T22:11:15.750Z,10.02
2022-10-18T22:13:42.820Z,9.40
2022-10-18T22:16:14.608Z,10.95
2022-10-18T22:18:42.322Z,9.63
2022-10-18T22:21:11.784Z,12.45
2022-10-18T22:23:43.986Z,10.88
2022-10-18T22:26:22.408Z,11.23
2022-10-18T22:28:58.455Z,8.70
2022-10-18T22:31:28.506Z,9.55
2022-10-18T22:34:00.717Z,9.05
2022-10-18T22:36:28.176Z,9.48
2022-10-18T22:38:54.772Z,8.63
2022-10-18T22:41:22.450Z,8.88
2022-10-18T22:43:53.340Z,8.23
2022-10-18T22:46:21.231Z,8.48
2022-10-18T22:48:48.102Z,8.45
2022-10-18T22:51:16.046Z,8.30
2022-10-18T22:53:42.710Z,9.13
2022-10-18T22:56:14.229Z,7.97
2022-10-18T22:58:40.891Z,7.80
2022-10-18T23:01:11.055Z,8.77
2022-10-18T23:03:38.652Z,8.10
2022-10-18T23:06:21.368Z,8.10
2022-10-18T23:08:48.568Z,5.77
2022-10-18T23:11:16.411Z,7.32
2022-10-18T23:13:43.023Z,8.55
2022-10-18T23:16:10.323Z,7.28
2022-10-18T23:18:37.263Z,7.22
2022-10-18T23:21:12.479Z,8.15
2022-10-18T23:23:41.190Z,7.97
2022-10-18T23:26:18.137Z,8.05
2022-10-18T23:28:48.244Z,7.43
2022-10-18T23:31:18.316Z,8.32
2022-10-18T23:33:49.431Z,7.57
2022-10-18T23:36:17.476Z,7.55
2022-10-18T23:38:44.471Z,8.30
2022-10-18T23:41:13.478Z,7.43
2022-10-18T23:43:40.952Z,7.53
2022-10-18T23:46:08.256Z,7.03
2022-10-18T23:48:35.131Z,8.13
2022-10-18T23:51:03.077Z,7.88
2022-10-18T23:53:30.049Z,6.95
2022-10-18T23:55:58.885Z,7.32
2022-10-18T23:58:26.995Z,7.38
